CheckWX is a tool to help pilots better visualize weather data.  It is not intended as a substitute for an official pre-flight weather briefing.

06:09:03 UTC

KCAO METAR
Clayton Municipal Arpk Airport
Clayton, New Mexico, USA
Current

14 mins ago

KCAO 230555Z AUTO 02011KT 10SM -RA OVC080 08/06 A3018 RMK AO2 SLP189 P0000 60002 T00780061 10128 20078 58005 $
Observed
Apr-23 @ 05:55 UTC
Wind
  • 020° at 11 KTS
Visibility
10 SM
Flight Rules
VFR
Conditions
Light Rain
Cloud Levels
  • Overcast at 8,000' AGL
Temperature
C / 46°F
Dewpoint
C / 43°F
Humidity
87%
Altimeter
30.18" Hg
Pressure
1022.02 hPa
Current Rain
0.01"
Previous

54 mins ago

KCAO 230515Z AUTO 02010KT 10SM -RA SCT025 OVC041 08/06 A3019 RMK AO2 P0000 T00780061 $
Observed
Apr-23 @ 05:15 UTC
Wind
  • 020° at 10 KTS
Visibility
10 SM
Flight Rules
VFR
Conditions
Light Rain
Cloud Levels
  • Scattered at 2,500' AGL
  • Overcast at 4,100' AGL
Temperature
C / 46°F
Dewpoint
C / 43°F
Humidity
87%
Altimeter
30.19" Hg
Pressure
1022.32 hPa
Current Rain
0.01"
Previous

1 hour ago

KCAO 230455Z AUTO 03009KT 10SM -RA OVC025 08/06 A3020 RMK AO2 SLP195 P0001 T00780061 $
Observed
Apr-23 @ 04:55 UTC
Wind
  • 030° at 9 KTS
Visibility
10 SM
Flight Rules
MVFR
Conditions
Light Rain
Cloud Levels
  • Overcast at 2,500' AGL
Temperature
C / 46°F
Dewpoint
C / 43°F
Humidity
87%
Altimeter
30.2" Hg
Pressure
1022.72 hPa
Current Rain
0.01"